createdAt,value
2019-05-21T00:00:10.131Z,994.92
2019-05-21T00:01:10.137Z,994.87
2019-05-21T00:02:10.111Z,994.87
2019-05-21T00:03:10.124Z,994.94
2019-05-21T00:04:10.082Z,994.96
2019-05-21T00:05:10.101Z,994.91
2019-05-21T00:06:10.070Z,994.92
2019-05-21T00:07:10.055Z,994.92
2019-05-21T00:08:10.045Z,994.88
2019-05-21T00:09:10.048Z,994.89
2019-05-21T00:10:10.018Z,994.89
2019-05-21T00:11:10.008Z,994.83
2019-05-21T00:12:10.003Z,994.90
2019-05-21T00:13:09.993Z,994.90
2019-05-21T00:14:09.996Z,994.91
2019-05-21T00:15:09.969Z,994.89
2019-05-21T00:16:09.959Z,994.90
2019-05-21T00:17:09.966Z,994.97
2019-05-21T00:18:09.935Z,994.99
2019-05-21T00:19:09.943Z,994.93
2019-05-21T00:20:09.921Z,995.03
2019-05-21T00:21:09.910Z,995.00
2019-05-21T00:22:09.896Z,995.08
2019-05-21T00:23:09.883Z,995.08
2019-05-21T00:24:09.872Z,995.08
2019-05-21T00:25:09.885Z,995.14
2019-05-21T00:26:09.854Z,995.10
2019-05-21T00:27:09.848Z,995.12
2019-05-21T00:28:09.826Z,995.11
2019-05-21T00:29:09.815Z,995.12
2019-05-21T00:30:09.828Z,995.11
2019-05-21T00:31:09.791Z,995.13
2019-05-21T00:32:09.789Z,995.16
2019-05-21T00:33:09.788Z,995.15
2019-05-21T00:34:09.767Z,995.14
2019-05-21T00:35:09.761Z,995.19
2019-05-21T00:36:09.769Z,995.22
2019-05-21T00:37:09.736Z,995.20
2019-05-21T00:38:09.727Z,995.23
2019-05-21T00:39:09.716Z,995.20
2019-05-21T00:40:09.692Z,995.20
2019-05-21T00:41:09.686Z,995.16
2019-05-21T00:42:09.686Z,995.19
2019-05-21T00:43:09.662Z,995.20
2019-05-21T00:44:09.661Z,995.21
2019-05-21T00:45:09.650Z,995.20
2019-05-21T00:46:09.669Z,995.17
2019-05-21T00:47:09.632Z,995.17
2019-05-21T00:48:09.608Z,995.21
2019-05-21T00:49:09.596Z,995.19
2019-05-21T00:50:09.585Z,995.24
2019-05-21T00:51:09.575Z,995.24
2019-05-21T00:52:09.757Z,995.23
2019-05-21T00:53:09.561Z,995.28
2019-05-21T00:54:09.541Z,995.22
2019-05-21T00:55:09.532Z,995.22
2019-05-21T00:56:09.531Z,995.23
2019-05-21T00:57:09.545Z,995.20
2019-05-21T00:58:09.504Z,995.23
2019-05-21T00:59:09.498Z,995.23
2019-05-21T01:00:09.560Z,995.21
2019-05-21T01:01:09.467Z,995.17
2019-05-21T01:02:09.469Z,995.18
2019-05-21T01:03:09.477Z,995.22
2019-05-21T01:04:09.443Z,995.23
2019-05-21T01:05:09.439Z,995.23
2019-05-21T01:06:09.423Z,995.21
2019-05-21T01:07:09.428Z,995.21
2019-05-21T01:08:09.406Z,995.24
2019-05-21T01:09:09.401Z,995.25
2019-05-21T01:10:09.388Z,995.26
2019-05-21T01:11:09.376Z,995.24
2019-05-21T01:12:09.363Z,995.24
2019-05-21T01:13:09.345Z,995.26
2019-05-21T01:14:09.352Z,995.21
2019-05-21T01:15:09.347Z,995.36
2019-05-21T01:16:09.312Z,995.29
2019-05-21T01:17:09.313Z,995.30
2019-05-21T01:18:09.295Z,995.29
2019-05-21T01:19:09.280Z,995.26
2019-05-21T01:20:09.277Z,995.30
2019-05-21T01:21:09.253Z,995.29
2019-05-21T01:22:09.244Z,995.28
2019-05-21T01:23:09.228Z,995.30
2019-05-21T01:24:09.236Z,995.28
2019-05-21T01:25:09.228Z,995.29
2019-05-21T01:26:09.198Z,995.28
2019-05-21T01:27:09.185Z,995.29
2019-05-21T01:28:09.185Z,995.26
2019-05-21T01:29:09.171Z,995.24
2019-05-21T01:30:09.194Z,995.23
2019-05-21T01:31:09.154Z,995.20
2019-05-21T01:32:09.147Z,995.24
2019-05-21T01:33:09.131Z,995.21
2019-05-21T01:34:11.374Z,995.25
2019-05-21T01:35:17.217Z,995.23
2019-05-21T01:36:10.109Z,995.22
2019-05-21T01:37:09.089Z,995.23
2019-05-21T01:38:09.077Z,995.21
2019-05-21T01:39:09.068Z,995.23
2019-05-21T01:40:09.061Z,995.20
2019-05-21T01:41:09.072Z,995.19
2019-05-21T01:42:09.045Z,995.17
2019-05-21T01:43:09.021Z,995.20
2019-05-21T01:44:09.017Z,995.16
2019-05-21T01:45:09.005Z,995.17
2019-05-21T01:46:08.993Z,995.13
2019-05-21T01:47:09.004Z,995.17
2019-05-21T01:48:08.975Z,995.11
2019-05-21T01:49:08.958Z,995.15
2019-05-21T01:50:08.951Z,995.19
2019-05-21T01:51:08.942Z,995.13
2019-05-21T01:52:08.955Z,995.12
2019-05-21T01:53:08.926Z,995.17
2019-05-21T01:54:08.906Z,995.11
2019-05-21T01:55:08.897Z,995.12
2019-05-21T01:56:08.882Z,995.07
2019-05-21T01:57:08.871Z,995.07
2019-05-21T01:58:08.890Z,995.12
2019-05-21T01:59:08.859Z,995.13
2019-05-21T02:00:08.835Z,995.17
2019-05-21T02:01:08.823Z,995.17
2019-05-21T02:02:08.813Z,995.09
2019-05-21T02:03:08.803Z,995.16
2019-05-21T02:04:08.808Z,995.14
2019-05-21T02:05:08.784Z,995.10
2019-05-21T02:06:08.774Z,995.12
2019-05-21T02:07:08.759Z,995.04
2019-05-21T02:08:08.744Z,995.07
2019-05-21T02:09:08.757Z,995.10
2019-05-21T02:10:08.722Z,995.17
2019-05-21T02:11:08.710Z,995.18
2019-05-21T02:12:10.774Z,995.18
2019-05-21T02:13:08.698Z,995.19
2019-05-21T02:14:08.678Z,995.19
2019-05-21T02:15:08.693Z,995.23
2019-05-21T02:16:08.662Z,995.22
2019-05-21T02:17:08.650Z,995.15
2019-05-21T02:18:08.638Z,995.16
2019-05-21T02:19:08.627Z,995.18
2019-05-21T02:20:08.619Z,995.17
2019-05-21T02:21:08.624Z,995.22
2019-05-21T02:22:08.589Z,995.20
2019-05-21T02:23:08.581Z,995.22
2019-05-21T02:24:08.577Z,995.21
2019-05-21T02:25:08.562Z,995.29
2019-05-21T02:26:08.557Z,995.25
2019-05-21T02:27:08.557Z,995.21
2019-05-21T02:28:08.525Z,995.18
2019-05-21T02:29:08.526Z,995.20
2019-05-21T02:30:09.689Z,995.19
2019-05-21T02:31:08.502Z,995.16
2019-05-21T02:32:08.503Z,995.16
2019-05-21T02:33:08.505Z,995.20
2019-05-21T02:34:08.474Z,995.21
2019-05-21T02:35:08.498Z,995.23
2019-05-21T02:36:08.449Z,995.27
2019-05-21T02:37:08.451Z,995.35
2019-05-21T02:38:08.429Z,995.33
2019-05-21T02:39:08.417Z,995.36
2019-05-21T02:40:08.408Z,995.34
2019-05-21T02:41:08.393Z,995.42
2019-05-21T02:42:08.403Z,995.36
2019-05-21T02:43:08.371Z,995.31
2019-05-21T02:44:08.359Z,995.32
2019-05-21T02:45:08.409Z,995.35
2019-05-21T02:46:08.351Z,995.35
2019-05-21T02:47:08.361Z,995.34
2019-05-21T02:48:08.912Z,995.39
2019-05-21T02:49:08.314Z,995.35
2019-05-21T02:50:08.299Z,995.43
2019-05-21T02:51:08.301Z,995.43
2019-05-21T02:52:08.294Z,995.47
2019-05-21T02:53:08.258Z,995.42
2019-05-21T02:54:08.250Z,995.40
2019-05-21T02:55:08.242Z,995.48
2019-05-21T02:56:08.239Z,995.47
2019-05-21T02:57:08.247Z,995.50
2019-05-21T02:58:08.218Z,995.56
2019-05-21T02:59:08.206Z,995.57
2019-05-21T03:00:08.197Z,995.58
2019-05-21T03:01:08.179Z,995.53
2019-05-21T03:02:08.184Z,995.55
2019-05-21T03:03:08.185Z,995.58
2019-05-21T03:04:08.146Z,995.59
2019-05-21T03:05:08.129Z,995.55
2019-05-21T03:06:14.513Z,995.63
2019-05-21T03:07:09.131Z,995.65
2019-05-21T03:08:08.115Z,995.62
2019-05-21T03:09:08.121Z,995.70
2019-05-21T03:10:08.087Z,995.67
2019-05-21T03:11:08.076Z,995.71
2019-05-21T03:12:08.089Z,995.71
2019-05-21T03:13:08.049Z,995.70
2019-05-21T03:14:08.070Z,995.69
2019-05-21T03:15:08.036Z,995.70
2019-05-21T03:16:08.023Z,995.73
2019-05-21T03:17:08.013Z,995.72
2019-05-21T03:18:08.020Z,995.65
2019-05-21T03:19:07.987Z,995.73
2019-05-21T03:20:07.983Z,995.70
2019-05-21T03:21:07.979Z,995.71
2019-05-21T03:22:07.958Z,995.73
2019-05-21T03:23:07.958Z,995.74
2019-05-21T03:24:07.944Z,995.80
2019-05-21T03:25:07.931Z,995.79
2019-05-21T03:26:07.916Z,995.76
2019-05-21T03:27:07.907Z,995.73
2019-05-21T03:28:07.907Z,995.71
2019-05-21T03:29:07.918Z,995.70
2019-05-21T03:30:07.880Z,995.79
2019-05-21T03:31:07.884Z,995.74
2019-05-21T03:32:07.864Z,995.75
2019-05-21T03:33:07.857Z,995.74
2019-05-21T03:34:07.837Z,995.77
2019-05-21T03:35:07.856Z,995.81
2019-05-21T03:36:07.820Z,995.75
2019-05-21T03:37:07.794Z,995.82
2019-05-21T03:38:07.785Z,995.78
2019-05-21T03:39:07.791Z,995.82
2019-05-21T03:40:07.782Z,995.85
2019-05-21T03:41:07.802Z,995.84
2019-05-21T03:42:07.755Z,995.84
2019-05-21T03:43:07.742Z,995.90
2019-05-21T03:44:07.728Z,995.91
2019-05-21T03:45:08.457Z,995.97
2019-05-21T03:46:07.708Z,995.97
2019-05-21T03:47:07.771Z,995.99
2019-05-21T03:48:07.688Z,995.93
2019-05-21T03:49:07.671Z,995.92
2019-05-21T03:50:07.666Z,995.96
2019-05-21T03:51:07.663Z,995.94
2019-05-21T03:52:07.668Z,995.94
2019-05-21T03:53:07.631Z,995.93
2019-05-21T03:54:07.624Z,995.88
2019-05-21T03:55:07.608Z,995.89
2019-05-21T03:56:07.593Z,995.95
2019-05-21T03:57:07.600Z,995.93
2019-05-21T03:58:07.601Z,995.90
2019-05-21T03:59:07.561Z,995.95
2019-05-21T04:00:07.565Z,995.92
2019-05-21T04:01:07.545Z,995.91
2019-05-21T04:02:07.533Z,995.93
2019-05-21T04:03:07.551Z,995.98
2019-05-21T04:04:07.505Z,995.92
2019-05-21T04:05:07.506Z,995.93
2019-05-21T04:06:07.490Z,995.96
2019-05-21T04:07:07.487Z,995.90
2019-05-21T04:08:07.463Z,995.92
2019-05-21T04:09:07.469Z,995.84
2019-05-21T04:10:07.444Z,995.87
2019-05-21T04:11:07.445Z,995.93
2019-05-21T04:12:07.425Z,995.92
2019-05-21T04:13:07.585Z,995.89
2019-05-21T04:14:07.417Z,995.92
2019-05-21T04:15:07.393Z,995.88
2019-05-21T04:16:07.381Z,995.92
2019-05-21T04:17:07.408Z,995.94
2019-05-21T04:18:07.350Z,995.94
2019-05-21T04:19:07.367Z,995.94
2019-05-21T04:20:07.336Z,996.00
2019-05-21T04:21:07.334Z,996.01
2019-05-21T04:22:07.309Z,996.00
2019-05-21T04:23:07.301Z,996.05
2019-05-21T04:24:08.920Z,996.04
2019-05-21T04:25:07.299Z,996.04
2019-05-21T04:26:07.281Z,996.02
2019-05-21T04:27:07.267Z,995.99
2019-05-21T04:28:07.247Z,996.02
2019-05-21T04:29:07.229Z,996.02
2019-05-21T04:30:11.095Z,996.05
2019-05-21T04:31:07.209Z,996.05
2019-05-21T04:32:07.212Z,996.06
2019-05-21T04:33:07.313Z,996.04
2019-05-21T04:34:07.199Z,995.99
2019-05-21T04:35:07.204Z,996.03
2019-05-21T04:36:07.162Z,996.01
2019-05-21T04:37:10.524Z,995.97
2019-05-21T04:38:07.151Z,995.94
2019-05-21T04:39:07.139Z,995.95
2019-05-21T04:40:07.111Z,995.97
2019-05-21T04:41:07.119Z,995.97
2019-05-21T04:42:07.098Z,995.98
2019-05-21T04:43:07.111Z,996.02
2019-05-21T04:44:07.080Z,996.08
2019-05-21T04:45:07.064Z,996.05
2019-05-21T04:46:07.070Z,996.04
2019-05-21T04:47:07.041Z,996.08
2019-05-21T04:48:07.026Z,996.02
2019-05-21T04:49:07.021Z,996.07
2019-05-21T04:50:07.016Z,995.97
2019-05-21T04:51:07.032Z,996.00
2019-05-21T04:52:06.996Z,996.02
2019-05-21T04:53:06.981Z,996.01
2019-05-21T04:54:06.969Z,996.02
2019-05-21T04:55:07.021Z,995.99
2019-05-21T04:56:06.960Z,996.03
2019-05-21T04:57:06.959Z,996.00
2019-05-21T04:58:06.924Z,995.98
2019-05-21T04:59:06.916Z,995.98
2019-05-21T05:00:06.900Z,995.97
2019-05-21T05:01:06.893Z,996.02
2019-05-21T05:02:06.939Z,995.99
2019-05-21T05:03:06.875Z,996.09
2019-05-21T05:04:06.862Z,996.07
2019-05-21T05:05:06.858Z,996.08
2019-05-21T05:06:06.847Z,996.12
2019-05-21T05:07:06.854Z,996.16
2019-05-21T05:08:06.977Z,996.15
2019-05-21T05:09:06.797Z,996.08
2019-05-21T05:10:06.795Z,996.17
2019-05-21T05:11:06.792Z,996.20
2019-05-21T05:12:06.769Z,996.18
2019-05-21T05:13:06.768Z,996.19
2019-05-21T05:14:06.772Z,996.19
2019-05-21T05:15:06.748Z,996.17
2019-05-21T05:16:06.740Z,996.18
2019-05-21T05:17:06.729Z,996.20
2019-05-21T05:18:06.740Z,996.15
2019-05-21T05:19:06.711Z,996.18
2019-05-21T05:20:06.701Z,996.13
2019-05-21T05:21:06.674Z,996.10
2019-05-21T05:22:06.679Z,996.13
2019-05-21T05:23:06.657Z,996.17
2019-05-21T05:24:06.666Z,996.15
2019-05-21T05:25:06.651Z,996.17
2019-05-21T05:26:06.618Z,996.12
2019-05-21T05:27:06.606Z,996.09
2019-05-21T05:28:06.622Z,996.18
2019-05-21T05:29:06.603Z,996.19
2019-05-21T05:30:06.580Z,996.19
2019-05-21T05:31:06.578Z,996.25
2019-05-21T05:32:06.582Z,996.16
2019-05-21T05:33:06.544Z,996.19
2019-05-21T05:34:06.557Z,996.15
2019-05-21T05:35:06.522Z,996.21
2019-05-21T05:36:06.519Z,996.17
2019-05-21T05:37:06.511Z,996.18
2019-05-21T05:38:06.535Z,996.18
2019-05-21T05:39:06.482Z,996.26
2019-05-21T05:40:06.666Z,996.25
2019-05-21T05:41:06.459Z,996.26
2019-05-21T05:42:06.454Z,996.27
2019-05-21T05:43:06.458Z,996.26
2019-05-21T05:44:06.426Z,996.26
2019-05-21T05:45:06.447Z,996.19
2019-05-21T05:46:06.407Z,996.27
2019-05-21T05:47:06.387Z,996.28
2019-05-21T05:48:06.389Z,996.24
2019-05-21T05:49:06.374Z,996.25
2019-05-21T05:50:06.402Z,996.19
2019-05-21T05:51:06.352Z,996.27
2019-05-21T05:52:06.335Z,996.19
2019-05-21T05:53:06.332Z,996.23
2019-05-21T05:54:07.785Z,996.24
2019-05-21T05:55:06.304Z,996.30
2019-05-21T05:56:06.308Z,996.26
2019-05-21T05:57:06.283Z,996.29
2019-05-21T05:58:06.276Z,996.32
2019-05-21T05:59:06.261Z,996.33
2019-05-21T06:00:06.266Z,996.29
2019-05-21T06:01:06.269Z,996.31
2019-05-21T06:02:06.233Z,996.24
2019-05-21T06:03:06.224Z,996.28
2019-05-21T06:04:06.204Z,996.31
2019-05-21T06:05:06.194Z,996.34
2019-05-21T06:06:06.197Z,996.30
2019-05-21T06:07:06.216Z,996.33
2019-05-21T06:08:06.170Z,996.26
2019-05-21T06:09:06.156Z,996.33
2019-05-21T06:10:06.190Z,996.28
2019-05-21T06:11:06.184Z,996.32
2019-05-21T06:12:06.131Z,996.33
2019-05-21T06:13:06.123Z,996.33
2019-05-21T06:14:06.106Z,996.38
2019-05-21T06:15:06.112Z,996.34
2019-05-21T06:16:06.076Z,996.34
2019-05-21T06:17:06.122Z,996.30
2019-05-21T06:18:06.083Z,996.34
2019-05-21T06:19:06.058Z,996.29
2019-05-21T06:20:06.046Z,996.35
2019-05-21T06:21:06.034Z,996.31
2019-05-21T06:22:06.045Z,996.35
2019-05-21T06:23:06.070Z,996.35
2019-05-21T06:24:06.010Z,996.38
2019-05-21T06:25:06.216Z,996.32
2019-05-21T06:26:06.076Z,996.37
2019-05-21T06:27:05.973Z,996.37
2019-05-21T06:28:05.969Z,996.38
2019-05-21T06:29:05.963Z,996.34
2019-05-21T06:30:05.941Z,996.43
2019-05-21T06:31:05.917Z,996.43
2019-05-21T06:32:05.927Z,996.37
2019-05-21T06:33:05.908Z,996.43
2019-05-21T06:34:05.894Z,996.38
2019-05-21T06:35:05.896Z,996.36
2019-05-21T06:36:05.867Z,996.36
2019-05-21T06:37:05.916Z,996.42
2019-05-21T06:38:17.331Z,996.44
2019-05-21T06:39:06.824Z,996.39
2019-05-21T06:40:05.823Z,996.46
2019-05-21T06:41:05.825Z,996.49
2019-05-21T06:42:05.821Z,996.44
2019-05-21T06:43:05.796Z,996.46
2019-05-21T06:44:05.776Z,996.45
2019-05-21T06:45:05.848Z,996.42
2019-05-21T06:46:05.767Z,996.55
2019-05-21T06:47:05.786Z,996.55
2019-05-21T06:48:05.743Z,996.56
2019-05-21T06:49:05.719Z,996.54
2019-05-21T06:50:05.711Z,996.64
2019-05-21T06:51:05.709Z,996.57
2019-05-21T06:52:05.706Z,996.61
2019-05-21T06:53:05.689Z,996.62
2019-05-21T06:54:05.692Z,996.59
2019-05-21T06:55:05.670Z,996.60
2019-05-21T06:56:07.478Z,996.66
2019-05-21T06:57:05.655Z,996.64
2019-05-21T06:58:05.627Z,996.64
2019-05-21T06:59:05.614Z,996.68
2019-05-21T07:00:05.612Z,996.74
2019-05-21T07:01:06.028Z,996.67
2019-05-21T07:02:05.642Z,996.72
2019-05-21T07:03:05.646Z,996.72
2019-05-21T07:04:05.642Z,996.71
2019-05-21T07:05:05.566Z,996.75
2019-05-21T07:06:05.553Z,996.71
2019-05-21T07:07:05.573Z,996.71
2019-05-21T07:08:05.531Z,996.70
2019-05-21T07:09:05.522Z,996.67
2019-05-21T07:10:05.518Z,996.69
2019-05-21T07:11:05.496Z,996.71
2019-05-21T07:12:05.507Z,996.68
2019-05-21T07:13:05.520Z,996.74
2019-05-21T07:14:05.479Z,996.73
2019-05-21T07:15:05.476Z,996.78
2019-05-21T07:16:05.884Z,996.79
2019-05-21T07:17:05.432Z,996.74
2019-05-21T07:18:05.429Z,996.84
2019-05-21T07:19:05.433Z,996.81
2019-05-21T07:20:05.410Z,996.81
2019-05-21T07:21:05.404Z,996.89
2019-05-21T07:22:12.593Z,996.91
2019-05-21T07:23:06.484Z,996.87
2019-05-21T07:24:05.389Z,996.93
2019-05-21T07:25:05.365Z,996.94
2019-05-21T07:26:05.349Z,996.95
2019-05-21T07:27:05.430Z,996.95
2019-05-21T07:28:05.319Z,996.92
2019-05-21T07:29:05.343Z,997.04
2019-05-21T07:30:05.310Z,997.00
2019-05-21T07:31:05.285Z,997.04
2019-05-21T07:32:05.278Z,996.98
2019-05-21T07:33:05.649Z,997.07
2019-05-21T07:34:05.252Z,997.07
2019-05-21T07:35:05.267Z,997.02
2019-05-21T07:36:05.239Z,997.06
2019-05-21T07:37:05.228Z,997.02
2019-05-21T07:38:05.220Z,996.98
2019-05-21T07:39:05.236Z,997.01
2019-05-21T07:40:05.190Z,996.98
2019-05-21T07:41:05.178Z,997.01
2019-05-21T07:42:05.168Z,997.04
2019-05-21T07:43:05.158Z,997.10
2019-05-21T07:44:05.290Z,997.10
2019-05-21T07:45:05.172Z,997.09
2019-05-21T07:46:05.223Z,997.09
2019-05-21T07:47:05.122Z,997.11
2019-05-21T07:48:05.107Z,997.12
2019-05-21T07:49:05.107Z,997.16
2019-05-21T07:50:05.108Z,997.20
2019-05-21T07:51:05.079Z,997.17
2019-05-21T07:52:05.078Z,997.14
2019-05-21T07:53:05.095Z,997.16
2019-05-21T07:54:05.061Z,997.13
2019-05-21T07:55:05.059Z,997.15
2019-05-21T07:56:05.056Z,997.12
2019-05-21T07:57:05.025Z,997.17
2019-05-21T07:58:05.013Z,997.19
2019-05-21T07:59:05.003Z,997.20
2019-05-21T08:00:04.986Z,997.24
2019-05-21T08:01:05.002Z,997.22
2019-05-21T08:02:04.971Z,997.23
2019-05-21T08:03:04.967Z,997.29
2019-05-21T08:04:04.965Z,997.31
2019-05-21T08:05:05.072Z,997.32
2019-05-21T08:06:04.964Z,997.36
2019-05-21T08:07:04.941Z,997.40
2019-05-21T08:08:04.932Z,997.36
2019-05-21T08:09:13.432Z,997.45
2019-05-21T08:10:05.902Z,997.38
2019-05-21T08:11:04.886Z,997.44
2019-05-21T08:12:27.483Z,997.40
2019-05-21T08:13:05.870Z,997.41
2019-05-21T08:14:04.861Z,997.41
2019-05-21T08:15:04.845Z,997.40
2019-05-21T08:16:04.841Z,997.46
2019-05-21T08:17:04.842Z,997.43
2019-05-21T08:18:04.849Z,997.42
2019-05-21T08:19:04.809Z,997.48
2019-05-21T08:20:10.016Z,997.41
2019-05-21T08:21:05.785Z,997.48
2019-05-21T08:22:04.809Z,997.48
2019-05-21T08:23:04.764Z,997.51
2019-05-21T08:24:04.769Z,997.48
2019-05-21T08:25:04.741Z,997.58
2019-05-21T08:26:04.737Z,997.54
2019-05-21T08:27:04.723Z,997.56
2019-05-21T08:28:04.749Z,997.60
2019-05-21T08:29:04.712Z,997.61
2019-05-21T08:30:04.702Z,997.62
2019-05-21T08:31:04.693Z,997.62
2019-05-21T08:32:04.680Z,997.66
2019-05-21T08:33:04.714Z,997.68
2019-05-21T08:34:04.658Z,997.67
2019-05-21T08:35:04.650Z,997.62
2019-05-21T08:36:05.201Z,997.64
2019-05-21T08:37:04.641Z,997.72
2019-05-21T08:38:06.764Z,997.72
2019-05-21T08:39:04.617Z,997.73
2019-05-21T08:40:04.629Z,997.82
2019-05-21T08:41:04.598Z,997.73
2019-05-21T08:42:04.587Z,997.65
2019-05-21T08:43:04.604Z,997.79
2019-05-21T08:44:04.571Z,997.79
2019-05-21T08:45:04.696Z,997.79
2019-05-21T08:46:04.548Z,997.83
2019-05-21T08:47:04.534Z,997.79
2019-05-21T08:48:04.551Z,997.82
2019-05-21T08:49:04.551Z,997.83
2019-05-21T08:50:04.512Z,997.84
2019-05-21T08:51:04.503Z,997.89
2019-05-21T08:52:04.492Z,997.84
2019-05-21T08:53:04.508Z,997.89
2019-05-21T08:54:04.472Z,997.90
2019-05-21T08:55:04.517Z,997.88
2019-05-21T08:56:04.451Z,997.94
2019-05-21T08:57:04.453Z,997.99
2019-05-21T08:58:07.282Z,997.98
2019-05-21T08:59:04.422Z,998.00
2019-05-21T09:00:04.422Z,998.00
2019-05-21T09:01:04.465Z,997.71
2019-05-21T09:02:04.408Z,997.36
2019-05-21T09:03:04.394Z,997.39
2019-05-21T09:04:04.377Z,997.83
2019-05-21T09:05:04.369Z,997.95
2019-05-21T09:06:04.376Z,997.81
2019-05-21T09:07:04.342Z,997.39
2019-05-21T09:08:04.343Z,997.78
2019-05-21T09:09:04.344Z,997.76
2019-05-21T09:10:04.315Z,997.91
2019-05-21T09:11:04.331Z,997.96
2019-05-21T09:12:04.305Z,998.02
2019-05-21T09:13:04.294Z,998.06
2019-05-21T09:14:04.290Z,997.45
2019-05-21T09:15:04.277Z,997.45
2019-05-21T09:16:04.276Z,997.43
2019-05-21T09:17:04.263Z,997.59
2019-05-21T09:18:04.241Z,997.61
2019-05-21T09:19:04.313Z,997.86
2019-05-21T09:20:04.230Z,997.45
2019-05-21T09:21:04.241Z,997.84
2019-05-21T09:22:04.216Z,997.96
2019-05-21T09:23:04.207Z,998.05
2019-05-21T09:24:04.190Z,998.19
2019-05-21T09:25:04.435Z,997.83
2019-05-21T09:26:04.168Z,997.82
2019-05-21T09:27:04.181Z,998.18
2019-05-21T09:28:04.156Z,998.18
2019-05-21T09:29:04.144Z,998.20
2019-05-21T09:30:04.127Z,998.16
2019-05-21T09:31:04.156Z,998.27
2019-05-21T09:32:04.145Z,998.33
2019-05-21T09:33:04.110Z,998.08
2019-05-21T09:34:04.095Z,998.21
2019-05-21T09:35:04.088Z,997.75
2019-05-21T09:36:04.080Z,997.87
2019-05-21T09:37:18.654Z,998.20
2019-05-21T09:38:05.062Z,998.26
2019-05-21T09:39:04.042Z,998.27
2019-05-21T09:40:04.126Z,998.30
2019-05-21T09:41:04.027Z,998.35
2019-05-21T09:42:04.025Z,997.93
2019-05-21T09:43:04.022Z,997.88
2019-05-21T09:44:03.999Z,997.71
2019-05-21T09:45:03.998Z,997.62
2019-05-21T09:46:03.978Z,997.60
2019-05-21T09:47:03.970Z,997.60
2019-05-21T09:48:03.960Z,997.55
2019-05-21T09:49:03.976Z,997.57
2019-05-21T09:50:04.147Z,997.56
2019-05-21T09:51:03.947Z,997.58
2019-05-21T09:52:03.926Z,997.79
2019-05-21T09:53:03.919Z,998.22
2019-05-21T09:54:03.906Z,998.16
2019-05-21T09:55:03.917Z,998.40
2019-05-21T09:56:03.884Z,998.44
2019-05-21T09:57:03.888Z,998.36
2019-05-21T09:58:03.872Z,998.49
2019-05-21T09:59:03.856Z,998.46
2019-05-21T10:00:04.214Z,998.51
2019-05-21T10:01:03.854Z,998.61
2019-05-21T10:02:03.829Z,998.60
2019-05-21T10:03:03.819Z,998.59
2019-05-21T10:04:03.808Z,998.43
2019-05-21T10:05:03.798Z,997.80
2019-05-21T10:06:03.787Z,997.76
2019-05-21T10:07:03.789Z,997.66
2019-05-21T10:08:03.772Z,997.63
2019-05-21T10:09:03.767Z,997.60
2019-05-21T10:10:03.754Z,997.60
2019-05-21T10:11:03.751Z,997.52
2019-05-21T10:12:03.751Z,997.59
2019-05-21T10:13:03.721Z,997.50
2019-05-21T10:14:03.715Z,997.56
2019-05-21T10:15:03.723Z,997.57
2019-05-21T10:16:03.694Z,997.59
2019-05-21T10:17:03.702Z,997.52
2019-05-21T10:18:03.710Z,997.59
2019-05-21T10:19:03.665Z,997.53
2019-05-21T10:20:03.664Z,997.58
2019-05-21T10:21:03.650Z,997.52
2019-05-21T10:22:03.700Z,997.50
2019-05-21T10:23:03.635Z,997.51
2019-05-21T10:24:03.635Z,997.53
2019-05-21T10:25:03.601Z,997.56
2019-05-21T10:26:03.603Z,997.63
2019-05-21T10:27:03.761Z,997.71
2019-05-21T10:28:03.586Z,997.62
2019-05-21T10:29:03.562Z,997.56
2019-05-21T10:30:03.546Z,997.51
2019-05-21T10:31:03.538Z,997.52
2019-05-21T10:32:03.592Z,997.51
2019-05-21T10:33:03.535Z,997.49
2019-05-21T10:34:03.525Z,997.49
2019-05-21T10:35:04.921Z,997.51
2019-05-21T10:36:03.486Z,997.54
2019-05-21T10:37:03.520Z,997.52
2019-05-21T10:38:03.472Z,997.54
2019-05-21T10:39:03.455Z,997.52
2019-05-21T10:40:03.485Z,997.56
2019-05-21T10:41:03.440Z,997.53
2019-05-21T10:42:03.433Z,997.55
2019-05-21T10:43:03.444Z,997.59
2019-05-21T10:44:03.421Z,997.54
2019-05-21T10:45:03.402Z,997.53
2019-05-21T10:46:03.394Z,997.55
2019-05-21T10:47:03.402Z,997.52
2019-05-21T10:48:03.392Z,997.56
2019-05-21T10:49:03.376Z,997.56
2019-05-21T10:50:03.383Z,997.58
2019-05-21T10:51:03.381Z,997.56
2019-05-21T10:52:03.336Z,997.62
2019-05-21T10:53:03.398Z,997.55
2019-05-21T10:54:03.317Z,997.58
2019-05-21T10:55:03.320Z,997.60
2019-05-21T10:56:03.330Z,997.60
2019-05-21T10:57:03.303Z,997.54
2019-05-21T10:58:03.311Z,997.60
2019-05-21T10:59:03.270Z,997.61
2019-05-21T11:00:03.364Z,997.60
2019-05-21T11:01:03.262Z,997.70
2019-05-21T11:02:03.231Z,997.74
2019-05-21T11:03:03.270Z,997.99
2019-05-21T11:04:03.274Z,997.97
2019-05-21T11:05:03.222Z,997.93
2019-05-21T11:06:10.225Z,997.72
2019-05-21T11:07:04.179Z,997.74
2019-05-21T11:08:23.096Z,997.69
2019-05-21T11:09:04.158Z,997.71
2019-05-21T11:10:03.179Z,997.72
2019-05-21T11:11:03.150Z,997.72
2019-05-21T11:12:03.127Z,997.72
2019-05-21T11:13:03.115Z,997.70
2019-05-21T11:14:03.111Z,997.68
2019-05-21T11:15:03.124Z,997.74
2019-05-21T11:16:03.185Z,997.68
2019-05-21T11:17:03.071Z,997.73
2019-05-21T11:18:11.492Z,997.65
2019-05-21T11:19:04.051Z,997.71
2019-05-21T11:20:03.038Z,997.64
2019-05-21T11:21:03.032Z,997.69
2019-05-21T11:22:03.046Z,997.63
2019-05-21T11:23:03.025Z,997.67
2019-05-21T11:24:03.092Z,997.62
2019-05-21T11:25:02.985Z,997.66
2019-05-21T11:26:03.128Z,997.64
2019-05-21T11:27:04.849Z,997.65
2019-05-21T11:28:06.005Z,997.71
2019-05-21T11:29:02.941Z,997.68
2019-05-21T11:30:02.947Z,997.72
2019-05-21T11:31:02.983Z,997.73
2019-05-21T11:32:02.919Z,997.83
2019-05-21T11:33:02.917Z,998.09
2019-05-21T11:34:02.894Z,998.29
2019-05-21T11:35:02.885Z,998.48
2019-05-21T11:36:02.898Z,998.55
2019-05-21T11:37:02.931Z,998.55
2019-05-21T11:38:02.874Z,998.71
2019-05-21T11:39:02.840Z,998.64
2019-05-21T11:40:02.832Z,998.22
2019-05-21T11:41:02.863Z,998.04
2019-05-21T11:42:02.808Z,997.95
2019-05-21T11:43:02.811Z,997.90
2019-05-21T11:44:02.798Z,997.91
2019-05-21T11:45:02.794Z,997.86
2019-05-21T11:46:03.307Z,997.87
2019-05-21T11:47:02.767Z,997.89
2019-05-21T11:48:02.768Z,997.79
2019-05-21T11:49:02.742Z,997.83
2019-05-21T11:50:02.735Z,997.90
2019-05-21T11:51:02.724Z,998.13
2019-05-21T11:52:02.719Z,998.20
2019-05-21T11:53:02.714Z,998.13
2019-05-21T11:54:02.689Z,998.00
2019-05-21T11:55:02.694Z,998.03
2019-05-21T11:56:02.683Z,998.04
2019-05-21T11:57:02.664Z,998.10
2019-05-21T11:58:02.669Z,998.09
2019-05-21T11:59:02.685Z,998.03
2019-05-21T12:00:02.635Z,998.10
2019-05-21T12:01:02.627Z,998.07
2019-05-21T12:02:02.616Z,998.19
2019-05-21T12:03:02.658Z,998.23
2019-05-21T12:04:02.604Z,998.30
2019-05-21T12:05:02.586Z,998.28
2019-05-21T12:06:02.570Z,998.42
2019-05-21T12:07:03.659Z,998.35
2019-05-21T12:08:02.555Z,998.31
2019-05-21T12:09:02.558Z,998.13
2019-05-21T12:10:02.566Z,998.21
2019-05-21T12:11:02.535Z,998.25
2019-05-21T12:12:02.524Z,998.24
2019-05-21T12:13:02.530Z,998.10
2019-05-21T12:14:02.508Z,997.98
2019-05-21T12:15:02.484Z,998.23
2019-05-21T12:16:02.497Z,998.04
2019-05-21T12:17:02.473Z,997.90
2019-05-21T12:18:02.465Z,998.26
2019-05-21T12:19:02.464Z,998.02
2019-05-21T12:20:02.436Z,998.05
2019-05-21T12:21:02.429Z,998.32
2019-05-21T12:22:02.423Z,998.21
2019-05-21T12:23:02.421Z,998.24
2019-05-21T12:24:02.412Z,998.18
2019-05-21T12:25:02.386Z,998.14
2019-05-21T12:26:02.387Z,998.27
2019-05-21T12:27:02.370Z,998.41
2019-05-21T12:28:02.367Z,998.36